Latest Weather Observations for Penrith

IDN60801

Issued at 5:12 pm EDT Wednesday 19 December 2018 (issued every 10 minutes, with the page automatically refreshed every 10 minutes)

About weather observations | Map of weather stations | Latest weather observations for NSW | Other Formats
Station Details ID: 067113 Name: PENRITH LAKES AWS Lat: -33.72 Lon: 150.68 Height: 24.7 m
Data from the previous 72 hours. | See also: Recent months at Penrith
Date/Time
EDT
Temp
°C
App
Temp
°C
Dew
Point
°C
Rel
Hum
%
Delta-T
°C
Wind Press
QNH
hPa
Press
MSL
hPa
Rain since
9am
mm
Dir  Spd
km/h
Gust
km/h
Spd
kts
Gust
kts
19/05:00pm 23.6 25.4 21.1 86 1.6 SE 13 17 7 9 - - 0.0
19/04:30pm 24.4 27.3 21.1 82 2.2 E 7 11 4 6 - - 0.0
19/04:00pm 24.6 28.9 21.1 81 2.3 CALM 0 0 0 0 - - 0.0
19/03:30pm 24.8 27.9 21.1 80 2.4 NNW 6 9 3 5 - - 0.0
19/03:00pm 24.4 27.4 20.9 81 2.3 NE 6 9 3 5 - - 0.0
19/02:30pm 23.7 26.4 20.6 83 2.0 ENE 7 13 4 7 - - 0.0
19/02:00pm 24.3 27.3 20.8 81 2.3 SE 6 7 3 4 - - 0.0
19/01:30pm 24.3 27.5 20.4 79 2.5 W 4 6 2 3 - - 0.0
19/01:00pm 23.2 26.7 20.3 84 1.9 SW 2 7 1 4 - - 0.0
19/12:30pm 22.8 25.4 20.1 85 1.7 WSW 6 9 3 5 - - 0.0
19/12:00pm 22.0 25.2 20.5 91 1.0 SSW 4 6 2 3 - - 0.0
19/11:30am 21.5 24.2 20.3 93 0.8 W 6 6 3 3 - - 0.0
19/11:00am 21.4 24.5 20.2 93 0.8 WNW 4 6 2 3 - - 0.0
19/10:30am 21.5 24.5 20.0 91 1.0 WNW 4 6 2 3 - - 0.0
19/10:00am 21.4 24.0 20.0 92 0.9 SW 6 9 3 5 - - 0.0
19/09:30am 21.2 24.3 20.2 94 0.6 S 4 7 2 4 - - 0.0
19/09:00am 21.1 23.8 20.3 95 0.5 SW 6 7 3 4 - - 2.2
19/08:30am 20.8 23.3 20.3 97 0.3 WSW 7 9 4 5 - - 2.2
19/08:00am 20.5 23.6 20.2 98 0.2 SW 4 6 2 3 - - 2.2
19/07:30am 20.4 23.0 20.1 98 0.2 SW 6 9 3 5 - - 2.2
19/07:00am 20.2 22.5 19.9 98 0.2 SW 7 9 4 5 - - 2.2
19/06:30am 20.0 23.2 19.7 98 0.2 SW 2 7 1 4 - - 2.2
19/06:00am 19.8 22.1 19.5 98 0.2 SSW 6 7 3 4 - - 2.2
19/05:30am 19.8 22.1 19.5 98 0.2 SSW 6 7 3 4 - - 2.2
19/05:00am 19.8 22.0 19.5 98 0.2 SSW 7 9 4 5 - - 2.2
19/04:30am 19.7 21.9 19.5 99 0.1 SSW 7 9 4 5 - - 2.2
19/04:00am 19.6 21.9 19.4 99 0.1 SSW 6 9 3 5 - - 2.2
19/03:30am 19.7 21.9 19.5 99 0.1 SSW 7 11 4 6 - - 2.2
19/03:00am 19.6 21.3 19.4 99 0.1 S 9 13 5 7 - - 2.0
19/02:30am 19.7 21.1 19.5 99 0.1 SSW 11 15 6 8 - - 1.8
19/02:00am 19.8 21.6 19.6 99 0.1 SSW 9 13 5 7 - - 1.4
19/01:30am 19.9 21.4 19.7 99 0.1 SSW 11 17 6 9 - - 1.2
19/01:00am 20.2 22.2 20.0 99 0.1 SSW 9 15 5 8 - - 1.2
19/12:30am 20.3 22.4 20.1 99 0.1 SSW 9 13 5 7 - - 1.2
19/12:00am 20.4 22.8 20.1 98 0.2 SSW 7 9 4 5 - - 1.2
 
Date/Time
EDT
Temp
°C
App
Temp
°C
Dew
Point
°C
Rel
Hum
%
Delta-T
°C
Wind Press
QNH
hPa
Press
MSL
hPa
Rain since
9am
mm
Dir  Spd
km/h
Gust
km/h
Spd
kts
Gust
kts
18/11:30pm 20.5 23.0 20.2 98 0.2 SSW 7 9 4 5 - - 0.4
18/11:00pm 20.9 23.6 20.6 98 0.2 SW 7 9 4 5 - - 0.0
18/10:30pm 21.3 23.8 20.3 94 0.6 S 7 11 4 6 - - 0.0
18/10:00pm 22.0 22.7 19.7 87 1.5 SSE 15 22 8 12 - - 0.0
18/09:30pm 22.3 23.4 19.7 85 1.7 S 13 20 7 11 - - 0.0
18/09:00pm 22.5 23.6 19.7 84 1.8 S 13 20 7 11 - - 0.0
18/08:30pm 22.8 23.9 19.6 82 2.0 S 13 19 7 10 - - 0.0
18/08:00pm 23.0 23.7 19.6 81 2.2 SE 15 20 8 11 - - 0.0
18/07:30pm 23.3 24.0 19.7 80 2.3 SSE 15 22 8 12 - - 0.0
18/07:00pm 23.7 23.9 19.4 77 2.8 SSE 17 24 9 13 - - 0.0
18/06:30pm 24.1 23.9 19.4 75 3.0 SE 19 30 10 16 - - 0.0
18/06:00pm 24.8 24.1 19.4 72 3.5 SSE 22 32 12 17 - - 0.0
18/05:30pm 25.6 25.9 19.5 69 3.9 SSE 17 22 9 12 - - 0.0
18/05:00pm 26.6 27.2 19.5 65 4.6 SSE 15 22 8 12 - - 0.0
18/04:30pm 27.1 27.2 19.2 62 5.1 SE 17 24 9 13 - - 0.0
18/04:00pm 27.4 28.3 19.2 61 5.3 ESE 13 20 7 11 - - 0.0
18/03:30pm 27.6 28.9 19.4 61 5.3 SE 11 15 6 8 - - 0.0
18/03:00pm 28.1 29.8 19.3 58 5.7 SSE 9 15 5 8 - - 0.0
18/02:30pm 29.3 31.4 19.3 55 6.5 SSE 7 13 4 7 - - 0.0
18/02:00pm 28.1 29.9 19.6 60 5.5 SSE 9 17 5 9 - - 0.0
18/01:30pm 28.5 30.2 19.4 57 5.9 SE 9 19 5 10 - - 0.0
18/01:00pm 27.4 29.1 18.4 58 5.7 SSE 7 13 4 7 - - 0.0
18/12:30pm 27.4 29.5 18.9 59 5.5 S 6 7 3 4 - - 0.0
18/12:00pm 27.6 29.2 19.1 59 5.5 S 9 15 5 8 - - 0.0
18/11:30am 26.6 28.6 19.2 64 4.8 S 7 11 4 6 - - 0.0
18/11:00am 25.9 27.0 18.8 65 4.5 SSE 11 19 6 10 - - 0.0
18/10:30am 25.4 26.5 18.8 67 4.2 SSE 11 19 6 10 - - 0.0
18/10:00am 24.8 26.4 19.2 71 3.6 SSW 9 19 5 10 - - 0.0
18/09:30am 24.7 26.7 19.1 71 3.6 SSW 7 13 4 7 - - 0.0
18/09:00am 23.6 25.1 18.9 75 3.0 SSW 9 17 5 9 - - 0.0
18/08:30am 22.8 24.3 19.0 79 2.4 SSW 9 13 5 7 - - 0.0
18/08:00am 22.3 24.4 18.9 81 2.1 SW 6 7 3 4 - - 0.0
18/07:30am 21.9 23.9 18.7 82 2.0 SSW 6 7 3 4 - - 0.0
18/07:00am 21.6 23.4 18.4 82 2.0 SSW 6 7 3 4 - - 0.0
18/06:30am 21.5 23.2 18.1 81 2.1 SSW 6 9 3 5 - - 0.0
18/06:00am 21.4 22.9 18.0 81 2.1 SSW 7 9 4 5 - - 0.0
18/05:30am 21.5 23.3 18.3 82 2.0 SSW 6 6 3 3 - - 0.0
18/05:00am 21.6 23.5 18.6 83 1.9 SSW 6 9 3 5 - - 0.0
18/04:30am 21.6 23.6 18.8 84 1.8 SW 6 7 3 4 - - 0.0
18/04:00am 21.5 23.9 18.7 84 1.8 SSW 4 7 2 4 - - 0.0
18/03:30am 21.4 23.4 18.8 85 1.6 SSW 6 7 3 4 - - 0.0
18/03:00am 21.3 23.7 18.9 86 1.5 S 4 6 2 3 - - 0.0
18/02:30am 21.0 23.5 19.1 89 1.2 S 4 7 2 4 - - 0.0
18/02:00am 20.9 22.9 18.7 87 1.4 S 6 6 3 3 - - 0.0
18/01:30am 21.3 23.3 18.7 85 1.6 SSW 6 9 3 5 - - 0.0
18/01:00am 21.3 23.3 19.2 88 1.3 S 7 11 4 6 - - 0.0
18/12:30am 21.8 22.8 19.4 86 1.5 SSW 13 20 7 11 - - 0.0
18/12:00am 22.0 24.1 19.0 83 1.9 SSW 6 9 3 5 - - 0.0
 
Date/Time
EDT
Temp
°C
App
Temp
°C
Dew
Point
°C
Rel
Hum
%
Delta-T
°C
Wind Press
QNH
hPa
Press
MSL
hPa
Rain since
9am
mm
Dir  Spd
km/h
Gust
km/h
Spd
kts
Gust
kts
17/11:30pm 22.4 24.7 19.8 85 1.7 SSW 7 11 4 6 - - 0.0
17/11:00pm 22.9 25.0 20.2 85 1.7 S 9 13 5 7 - - 0.0
17/10:30pm 23.4 25.7 19.8 80 2.3 S 7 11 4 6 - - 0.0
17/10:00pm 24.0 25.8 19.5 76 2.9 SSW 9 15 5 8 - - 0.0
17/09:30pm 24.3 25.2 16.6 62 4.7 SSW 7 13 4 7 - - 0.0
17/09:00pm 25.2 25.6 15.2 54 6.0 SSW 7 11 4 6 - - 0.0
17/08:30pm 25.8 26.1 14.9 51 6.6 SSE 7 9 4 5 - - 0.0
17/08:00pm 27.1 27.0 13.4 42 8.1 E 6 7 3 4 - - 0.0
17/07:30pm 28.4 28.1 14.3 42 8.5 ENE 9 13 5 7 - - 0.0
17/07:00pm 29.8 29.5 14.4 39 9.3 ENE 9 15 5 8 - - 0.0
17/06:30pm 30.5 29.2 13.7 35 10.1 ENE 13 19 7 10 - - 0.0
17/06:00pm 31.2 30.0 13.9 35 10.5 ENE 13 19 7 10 - - 0.0
17/05:30pm 31.6 30.1 14.3 35 10.5 ENE 15 20 8 11 - - 0.0
17/05:00pm 31.9 29.6 14.1 34 10.8 NE 19 28 10 15 - - 0.0
17/04:30pm 32.1 30.4 14.7 35 10.7 ENE 17 24 9 13 - - 0.0
17/04:00pm 32.9 31.3 15.0 34 11.1 E 17 26 9 14 - - 0.0
17/03:30pm 32.6 30.3 14.7 34 11.0 E 20 30 11 16 - - 0.0
17/03:00pm 33.9 34.3 15.4 33 11.5 ENE 7 17 4 9 - - 0.0
17/02:30pm 33.5 33.4 15.0 32 11.5 ESE 9 24 5 13 - - 0.0
17/02:00pm 33.1 32.1 14.7 33 11.3 E 13 22 7 12 - - 0.0
17/01:30pm 32.5 32.7 14.1 32 11.2 NE 6 11 3 6 - - 0.0
17/01:00pm 32.5 32.8 15.1 35 10.8 E 7 15 4 8 - - 0.0
17/12:30pm 32.0 31.7 13.2 31 11.3 NNE 7 20 4 11 - - 0.0
17/12:00pm 31.7 31.4 14.4 35 10.6 ENE 9 20 5 11 - - 0.0
17/11:30am 30.7 30.8 13.9 36 10.1 ENE 6 15 3 8 - - 0.0
17/11:00am 29.7 30.9 15.8 43 8.6 NE 4 6 2 3 - - 0.0
17/10:30am 29.4 31.1 17.2 47 7.7 NE 4 11 2 6 - - 0.0
17/10:00am 28.4 29.8 15.3 45 8.0 NE 2 4 1 2 - - 0.0
17/09:30am 27.6 28.7 15.6 48 7.3 SSW 4 6 2 3 - - 0.0
17/09:00am 26.5 29.6 19.4 65 4.6 SW 2 6 1 3 - - 0.2
17/08:30am 25.4 28.3 19.1 68 4.0 SSW 2 4 1 2 - - 0.2
17/08:00am 24.1 27.1 18.5 71 3.5 CALM 0 2 0 1 - - 0.2
17/07:30am 22.8 26.0 19.8 83 1.9 S 2 6 1 3 - - 0.2
17/07:00am 22.1 26.5 21.3 95 0.5 CALM 0 0 0 0 - - 0.2
17/06:30am 20.6 24.1 20.3 98 0.2 NE 2 4 1 2 - - 0.2
17/06:00am 19.5 22.1 19.2 98 0.2 NNE 4 6 2 3 - - 0.2
17/05:30am 19.8 23.3 19.5 98 0.2 CALM 0 0 0 0 - - 0.2
17/05:00am 19.7 22.8 19.4 98 0.2 SSW 2 4 1 2 - - 0.2
17/04:30am 20.2 23.9 19.9 98 0.2 CALM 0 0 0 0 - - 0.2
17/04:00am 20.2 23.5 19.9 98 0.2 SSW 2 6 1 3 - - 0.2
17/03:30am 20.6 23.7 20.3 98 0.2 S 4 6 2 3 - - 0.2
17/03:00am 21.1 24.3 20.6 97 0.3 WSW 4 6 2 3 - - 0.2
17/02:30am 21.4 24.3 20.6 95 0.5 S 6 7 3 4 - - 0.2
17/02:00am 21.6 24.5 20.6 94 0.6 S 6 7 3 4 - - 0.2
17/01:30am 22.1 24.8 20.6 91 1.0 SSW 7 11 4 6 - - 0.2
17/01:00am 22.3 25.2 20.6 90 1.1 SW 6 9 3 5 - - 0.2
17/12:30am 22.4 26.0 20.5 89 1.2 N 2 4 1 2 - - 0.2
17/12:00am 23.4 26.2 20.5 84 1.9 NNW 6 7 3 4 - - 0.2
 
Date/Time
EDT
Temp
°C
App
Temp
°C
Dew
Point
°C
Rel
Hum
%
Delta-T
°C
Wind Press
QNH
hPa
Press
MSL
hPa
Rain since
9am
mm
Dir  Spd
km/h
Gust
km/h
Spd
kts
Gust
kts
16/11:30pm 23.7 26.9 20.4 82 2.1 N 4 6 2 3 - - 0.2
16/11:00pm 24.4 26.4 20.7 80 2.4 N 11 13 6 7 - - 0.2
16/10:30pm 24.4 27.2 20.9 81 2.3 N 7 9 4 5 - - 0.2
16/10:00pm 24.6 27.5 20.7 79 2.6 NNE 6 6 3 3 - - 0.2
16/09:30pm 25.2 28.0 20.5 75 3.1 NNE 6 9 3 5 - - 0.2
16/09:00pm 25.9 27.9 20.7 73 3.4 NE 11 15 6 8 - - 0.2
16/08:30pm 26.6 29.1 20.2 68 4.2 ENE 7 13 4 7 - - 0.2
16/08:00pm 27.1 28.0 20.0 65 4.6 NNE 15 20 8 11 - - 0.2
16/07:30pm 27.6 27.6 19.7 62 5.1 NNE 19 24 10 13 - - 0.2
16/07:00pm 28.5 27.5 18.9 56 6.2 NNE 22 30 12 16 - - 0.2
16/06:30pm 29.0 27.0 18.4 52 6.8 NNE 26 37 14 20 - - 0.2
16/06:00pm 28.6 26.0 19.5 58 5.9 NNE 32 46 17 25 - - 0.2
16/05:30pm 30.4 29.8 22.6 63 5.3 NE 30 39 16 21 - - 0.2

Other Formats:

Comma delimited format used in spreadsheet applications
http://www.bom.gov.au/fwo/IDN60801/IDN60801.94763.axf

JavaScript Object Notation format (JSON) in row-major order
http://www.bom.gov.au/fwo/IDN60801/IDN60801.94763.json